Aircraft
UPR1037 PT-CAB C 208B
KLXL
Little Falls-Morrison County-Lindbergh field
KMML
Southwest Minnesota Regional Airport - Marshall/Ryan Field
Pilot:: Klebson
Aircraft:: Black Square Caravan Professional Gear PT-ATY
Alternate: KMSP
Network: ivao
FLIGHT DETAILS
Distance: 110nm Duration 00h 36m
Cruise Speed: Flight Level: 8000
Validation: Validated Type Charter
Flight Fuel
ZFW: 2457
Block Fuel/Initial FOB: 336
Flight Fuel: 168
Cargo
Passengers: 6
Cargo: 0
ROUTE
ROUTE: DCT
REMARKS:
DATE
Date: 26-04-28
Departure Time: 2113
Cargo: 0
FLIGHT DETAILS
Crashed: No
Validator Comments: Validado por Claudenir
Flight Rating: 100
LANDING ANALYSIS
Landing wind: 351º/9 kt
Landing heading: 310º
Landing VS:: -41 ft/min
Landing IAS:: 79 kt
Landing Force G: 1 G
Landing Bank: 0
Landing Pitch: -3
Landing Flaps: 33
Navigation Lights: ON
Landing Lights: ON
Beacon Lights: ON
Strobe Lights: ON
viserfly

ALTITUDE CHART

viserfly

MAIN EVENTS

DATE EVENT IAS ALTITUDE
2026-04-28 21:13:02 FLYacars version 1.3.4 0 1127
2026-04-28 21:13:02 Aircraft boarding in progress 0 1127
2026-04-28 21:13:02 FLAPS 66% 0 1127
2026-04-28 21:13:31 Aircraft taxiing to runway 5 1127
2026-04-28 21:13:44 Detected Take-off roll, HDG 322, IAS 67kt, GS 69kt, G-force 1.0g, Pitch -4.8deg, Bank -0.2deg, Wind 271/01kt, Temp 15°C 67 1130
2026-04-28 21:13:44 Airborne 67 1130
2026-04-28 21:14:12 FLAPS 33% 88kt, ALT 1647ft 88 1647
2026-04-28 21:14:25 FLAPS 0% 103kt, ALT 1927ft 103 1927
2026-04-28 21:18:01 Aircraft on Top Of Climb at 7992ft, IAS 127kt, GS 144kt, HDG 202deg, TAT 1deg, WIND 270/2kt 127 7992
2026-04-28 21:45:16 Aircraft on Top Of Descent at 7497ft, IAS 122kt, GS 116kt, HDG 305deg, TAT -5deg, WIND 290/19kt 122 7497
2026-04-28 21:48:31 FLAPS 33% 79kt, ALT 1604ft 79 1604
2026-04-28 21:49:28 Landed at destination with a landing rate of -41fpm, G-force 1.0g, Pitch -2.6deg, Bank 0.2deg, HDG 310deg, IAS 79kt, GS 73kt, Wind 351/09kt, Temp 8°C 79 1193
2026-04-28 21:49:28 Incorrect altimeter settings on landing 79 1193
2026-04-28 21:49:28 Incorrect altimeter settings on takeoff 79 1193
2026-04-28 21:49:39 Aircraft taxiing to apron 33 1189
2026-04-28 21:49:50 Aircraft at gate/stand, ground services are moving into position, disembarkation has begun. Remaining FOB 168kg FLYacars v1.3.4 7 1188
viserfly

ACARS DATA

DATE IAS GS ALTITUDE FUEL CONSUMED OAT FLIGHT STATUS
2026-04-28 21:13:32 9 10 1127 28 15 TAXI TO RUNWAY
2026-04-28 21:14:02 76 79 1490 30 14 TAKEOFF
2026-04-28 21:14:32 112 115 2074 31 13 TAKEOFF
2026-04-28 21:15:02 126 130 2887 33 11 INITIAL CLIMB
2026-04-28 21:15:32 127 133 3777 35 9 CLIMB
2026-04-28 21:16:02 126 134 4673 36 8 CLIMB
2026-04-28 21:16:32 124 134 5543 38 6 CLIMB
2026-04-28 21:17:02 123 134 6411 39 4 CLIMB
2026-04-28 21:17:32 121 135 7260 41 2 CLIMB
2026-04-28 21:18:02 128 144 7993 42 1 ENROUTE
2026-04-28 21:18:32 155 175 8008 44 1 ENROUTE
2026-04-28 21:19:02 161 182 8007 45 1 ENROUTE
2026-04-28 21:19:32 162 183 8008 47 1 ENROUTE
2026-04-28 21:20:02 163 184 8009 48 1 ENROUTE
2026-04-28 21:20:32 163 184 8008 50 1 ENROUTE
2026-04-28 21:21:02 163 184 8007 51 1 ENROUTE
2026-04-28 21:21:32 163 184 8008 53 1 ENROUTE
2026-04-28 21:22:02 163 184 8007 54 1 ENROUTE
2026-04-28 21:22:32 163 184 8008 56 1 ENROUTE
2026-04-28 21:23:02 163 184 8008 57 1 ENROUTE
2026-04-28 21:23:32 163 184 8008 59 1 ENROUTE
2026-04-28 21:24:02 163 184 8007 60 1 ENROUTE
2026-04-28 21:24:32 162 183 8007 62 1 ENROUTE
2026-04-28 21:25:02 163 184 8008 63 1 ENROUTE
2026-04-28 21:25:32 163 184 8008 65 1 ENROUTE
2026-04-28 21:26:02 162 183 8007 66 1 ENROUTE
2026-04-28 21:26:32 163 184 8008 68 1 ENROUTE
2026-04-28 21:27:02 162 183 8008 69 1 ENROUTE
2026-04-28 21:27:32 163 184 8008 71 1 ENROUTE
2026-04-28 21:28:02 162 183 8008 72 1 ENROUTE
2026-04-28 21:28:32 162 183 8008 74 1 ENROUTE
2026-04-28 21:29:02 162 183 8008 75 1 ENROUTE
2026-04-28 21:29:32 163 184 8009 77 1 ENROUTE
2026-04-28 21:30:02 163 184 8008 78 1 ENROUTE
2026-04-28 21:30:32 163 184 8008 80 1 ENROUTE
2026-04-28 21:31:02 162 183 8008 81 1 ENROUTE
2026-04-28 21:31:32 162 183 8009 83 1 ENROUTE
2026-04-28 21:32:02 162 183 8007 86 1 ENROUTE
2026-04-28 21:32:32 162 183 8006 89 1 ENROUTE
2026-04-28 21:33:02 162 183 8007 92 1 ENROUTE
2026-04-28 21:33:32 162 183 8007 95 1 ENROUTE
2026-04-28 21:34:02 162 183 8008 98 1 ENROUTE
2026-04-28 21:34:32 162 183 8007 101 1 ENROUTE
2026-04-28 21:35:02 162 183 8008 104 1 ENROUTE
2026-04-28 21:35:32 162 183 8007 107 1 ENROUTE
2026-04-28 21:36:02 162 183 8007 110 1 ENROUTE
2026-04-28 21:36:32 162 183 8007 113 1 ENROUTE
2026-04-28 21:37:02 162 183 8008 116 1 ENROUTE
2026-04-28 21:37:32 162 183 8008 119 1 ENROUTE
2026-04-28 21:38:02 162 183 8008 122 1 ENROUTE
2026-04-28 21:38:32 162 183 8008 125 1 ENROUTE
2026-04-28 21:39:02 162 183 8008 128 1 ENROUTE
2026-04-28 21:39:32 162 183 8008 131 1 ENROUTE
2026-04-28 21:40:02 162 183 8009 134 1 ENROUTE
2026-04-28 21:40:32 162 183 8007 137 1 ENROUTE
2026-04-28 21:41:02 162 183 7997 139 1 ENROUTE
2026-04-28 21:41:32 174 179 7909 143 -5 DESCENT
2026-04-28 21:42:02 164 164 7880 146 -5 ENROUTE
2026-04-28 21:42:32 164 164 7873 149 -5 ENROUTE
2026-04-28 21:43:02 164 165 7874 152 -6 ENROUTE
2026-04-28 21:43:32 165 166 7880 155 -6 ENROUTE
2026-04-28 21:44:02 164 165 7876 158 -6 ENROUTE
2026-04-28 21:44:32 163 165 7864 161 -6 ENROUTE
2026-04-28 21:45:02 134 132 7857 163 -6 ENROUTE
2026-04-28 21:45:32 124 116 6860 163 -5 DESCENT
2026-04-28 21:46:02 124 115 5715 164 -3 DESCENT
2026-04-28 21:46:32 123 115 4579 164 -1 DESCENT
2026-04-28 21:47:02 124 116 3449 165 1 DESCENT
2026-04-28 21:47:32 128 117 2321 165 5 DESCENT
2026-04-28 21:48:02 101 96 1612 166 8 DESCENT
2026-04-28 21:48:32 80 73 1597 166 8 ON FINAL
2026-04-28 21:49:02 91 86 1314 167 8 ON FINAL
2026-04-28 21:49:32 77 71 1190 168 8 ON FINAL
  • Join our VA!

    It has been 11 years of great learning, friendships, and stories.

  • Sign up now!